Time;durP1;ratioP1;P1;durP2;ratioP2;P2;SDS_P1;SDS_P2;PMS_P1;PMS_P2;Temp;Humidity;BMP_temperature;BMP_pressure;BME280_temperature;BME280_humidity;BME280_pressure;Samples;Min_cycle;Max_cycle;Signal;HPM_P1;HPM_P2
2023/02/20 00:00:34;;;;;;;13.10;11.68;;;28.00;68.00;;;;;;4105906;28;20058;-49
2023/02/20 00:02:56;;;;;;;13.18;11.77;;;28.10;68.00;;;;;;4104572;28;20061;-54
2023/02/20 00:05:20;;;;;;;13.07;11.68;;;28.10;67.90;;;;;;4088324;28;20144;-44
2023/02/20 00:07:42;;;;;;;12.88;10.93;;;28.10;68.00;;;;;;4100466;28;20149;-45
2023/02/20 00:10:05;;;;;;;13.88;11.43;;;28.20;68.10;;;;;;4107350;28;20047;-48
2023/02/20 00:12:28;;;;;;;15.75;10.50;;;28.20;68.10;;;;;;4102506;28;20376;-54
2023/02/20 00:14:50;;;;;;;11.48;9.20;;;28.20;67.40;;;;;;4106480;28;20303;-49
2023/02/20 00:17:13;;;;;;;10.20;9.20;;;28.20;64.00;;;;;;4105383;28;20043;-50
2023/02/20 00:19:35;;;;;;;9.00;7.95;;;28.00;63.00;;;;;;4105474;28;20043;-51
2023/02/20 00:21:58;;;;;;;15.73;8.90;;;27.90;62.20;;;;;;4105245;28;20197;-46
2023/02/20 00:24:20;;;;;;;19.35;8.63;;;27.70;61.30;;;;;;4104480;28;20121;-45
2023/02/20 00:26:51;;;;;;;15.82;8.27;;;27.50;59.60;;;;;;4089398;28;20066;-49
2023/02/20 00:29:16;;;;;;;9.35;7.55;;;27.40;59.90;;;;;;4102680;28;20050;-47
2023/02/20 00:31:38;;;;;;;9.32;8.43;;;27.20;59.80;;;;;;4102356;28;20050;-44
2023/02/20 00:34:01;;;;;;;9.55;8.30;;;27.10;57.20;;;;;;4105352;28;21006;-44
2023/02/20 00:36:23;;;;;;;7.93;7.13;;;26.90;58.30;;;;;;4105021;28;20038;-44
2023/02/20 00:38:46;;;;;;;8.43;7.53;;;26.80;58.90;;;;;;4104476;28;20571;-43
2023/02/20 00:41:10;;;;;;;9.30;7.90;;;26.70;58.30;;;;;;4105237;28;20101;-47
2023/02/20 00:43:35;;;;;;;8.55;7.10;;;26.60;58.30;;;;;;4103926;28;20046;-45
2023/02/20 00:45:57;;;;;;;8.45;7.43;;;26.50;58.80;;;;;;4098318;28;20096;-45
2023/02/20 00:48:19;;;;;;;6.95;6.25;;;26.40;58.90;;;;;;4102470;28;20035;-44
2023/02/20 00:50:42;;;;;;;8.10;7.30;;;26.40;57.80;;;;;;4105152;28;20061;-43
2023/02/20 00:53:04;;;;;;;7.70;6.90;;;26.20;58.50;;;;;;4102273;28;20049;-46
2023/02/20 00:55:27;;;;;;;7.63;6.82;;;26.10;58.60;;;;;;4093886;28;20493;-43
2023/02/20 00:57:49;;;;;;;7.20;6.50;;;26.00;58.60;;;;;;4102661;28;20497;-45
2023/02/20 01:00:19;;;;;;;7.25;6.55;;;26.00;59.00;;;;;;4097623;28;20051;-47
2023/02/20 01:02:42;;;;;;;7.93;7.03;;;25.80;58.40;;;;;;4102889;28;20049;-44
2023/02/20 01:05:05;;;;;;;7.80;7.00;;;25.70;58.90;;;;;;4106969;28;20116;-42
2023/02/20 01:07:27;;;;;;;7.60;6.65;;;25.70;58.40;;;;;;4100428;28;20042;-41
2023/02/20 01:09:49;;;;;;;7.22;6.53;;;25.60;58.60;;;;;;4104900;28;20428;-42
2023/02/20 01:12:12;;;;;;;7.65;6.82;;;25.50;58.60;;;;;;4099410;28;20042;-42
2023/02/20 01:14:35;;;;;;;8.40;7.13;;;25.40;59.00;;;;;;4102524;28;20043;-42
2023/02/20 01:16:57;;;;;;;7.78;6.97;;;25.40;59.70;;;;;;4104083;28;20050;-42
2023/02/20 01:19:23;;;;;;;7.85;7.05;;;25.30;59.50;;;;;;4103644;28;20152;-43
2023/02/20 01:21:47;;;;;;;8.10;7.22;;;25.20;59.50;;;;;;4104241;28;20472;-43
2023/02/20 01:24:09;;;;;;;7.55;6.63;;;25.20;59.80;;;;;;4096061;28;20462;-42
2023/02/20 01:26:32;;;;;;;7.45;6.65;;;25.10;59.60;;;;;;4100355;28;20062;-43
2023/02/20 01:28:54;;;;;;;8.25;6.78;;;25.00;60.00;;;;;;4103010;28;20039;-42
2023/02/20 01:31:17;;;;;;;7.82;7.03;;;25.00;59.50;;;;;;4101179;28;20042;-44
2023/02/20 01:33:43;;;;;;;7.68;6.88;;;24.90;60.00;;;;;;4100160;28;20505;-44
2023/02/20 01:36:07;;;;;;;7.68;6.88;;;24.90;59.60;;;;;;4099993;28;20043;-43
2023/02/20 01:38:29;;;;;;;;;;;24.80;59.60;;;;;;4097681;28;20031;-42
2023/02/20 01:40:51;;;;;;;9.18;7.15;;;24.70;59.40;;;;;;4092865;28;19937;-44
2023/02/20 01:43:14;;;;;;;7.60;6.90;;;24.70;58.80;;;;;;4103405;28;20058;-42
2023/02/20 01:45:38;;;;;;;9.05;7.15;;;24.60;59.70;;;;;;4095635;28;20050;-45
2023/02/20 01:48:01;;;;;;;8.73;7.13;;;24.50;59.70;;;;;;4100993;28;20097;-44
2023/02/20 01:50:30;;;;;;;8.40;7.47;;;24.50;58.90;;;;;;4103812;28;20051;-43
2023/02/20 01:52:55;;;;;;;7.72;6.93;;;24.40;59.50;;;;;;4098268;28;20047;-44
2023/02/20 01:55:22;;;;;;;7.43;6.60;;;24.40;59.60;;;;;;4100766;28;20181;-42
2023/02/20 01:57:50;;;;;;;7.60;6.80;;;24.30;59.80;;;;;;4098349;28;20066;-43
2023/02/20 02:00:18;;;;;;;7.63;6.82;;;24.20;59.50;;;;;;4098585;28;20103;-44
2023/02/20 02:02:47;;;;;;;8.45;6.88;;;24.20;59.50;;;;;;4100891;28;20054;-46
2023/02/20 02:05:11;;;;;;;8.55;7.22;;;24.20;60.80;;;;;;4101167;28;20086;-45
2023/02/20 02:07:33;;;;;;;;;;;24.10;60.80;;;;;;4103498;28;20389;-42
2023/02/20 02:09:58;;;;;;;7.82;7.00;;;24.10;61.00;;;;;;4098813;28;19966;-44
2023/02/20 02:12:21;;;;;;;7.63;6.80;;;24.10;60.90;;;;;;4105048;28;20145;-45
2023/02/20 02:14:44;;;;;;;8.30;7.50;;;24.00;61.10;;;;;;4102675;28;20536;-46
2023/02/20 02:17:47;;;;;;;7.22;6.40;;;24.00;61.10;;;;;;4105656;28;20043;-40
2023/02/20 02:20:32;;;;;;;7.32;6.53;;;24.00;61.70;;;;;;4078065;28;20109;-44
2023/02/20 02:23:11;;;;;;;6.85;6.10;;;24.00;61.60;;;;;;4102012;28;20045;-41
2023/02/20 02:26:26;;;;;;;8.88;6.63;;;24.00;61.20;;;;;;4104671;28;20051;-42
2023/02/20 02:29:09;;;;;;;7.15;5.88;;;23.90;61.70;;;;;;4098770;28;20397;-43
2023/02/20 02:31:44;;;;;;;6.38;5.32;;;23.90;61.80;;;;;;4101158;28;20561;-44
2023/02/20 02:34:32;;;;;;;6.40;5.53;;;23.90;61.80;;;;;;4101103;28;20135;-43
2023/02/20 02:37:02;;;;;;;6.22;5.35;;;23.90;61.80;;;;;;4104621;28;21625;-46
2023/02/20 02:39:48;;;;;;;7.18;5.40;;;23.80;61.70;;;;;;4105832;28;20047;-51
2023/02/20 02:42:37;;;;;;;6.07;5.32;;;23.80;61.70;;;;;;4104883;28;20392;-42
2023/02/20 02:45:24;;;;;;;5.90;5.13;;;23.80;62.10;;;;;;4106393;28;20078;-42
2023/02/20 02:48:03;;;;;;;5.35;4.70;;;23.80;62.20;;;;;;4092843;28;20081;-45
2023/02/20 02:50:40;;;;;;;5.25;4.70;;;23.80;62.10;;;;;;4106739;28;20039;-47
2023/02/20 02:53:04;;;;;;;6.05;5.35;;;23.80;61.80;;;;;;4104688;28;20039;-42
2023/02/20 02:55:30;;;;;;;5.85;4.50;;;23.80;62.00;;;;;;4098059;28;20533;-43
2023/02/20 02:57:52;;;;;;;5.40;4.60;;;23.70;62.10;;;;;;4103156;28;20043;-42
2023/02/20 03:00:52;;;;;;;5.60;4.85;;;23.70;62.10;;;;;;4102140;28;20053;-47
2023/02/20 03:03:22;;;;;;;4.95;4.40;;;23.70;62.20;;;;;;4102734;28;20607;-40
2023/02/20 03:06:01;;;;;;;4.90;4.18;;;23.70;62.20;;;;;;4101168;28;20160;-43
2023/02/20 03:08:56;;;;;;;5.30;4.53;;;23.70;62.20;;;;;;4100935;28;20117;-43
2023/02/20 03:11:21;;;;;;;4.25;3.78;;;23.60;62.10;;;;;;4105443;28;20041;-44
2023/02/20 03:16:55;;;;;;;4.80;3.85;;;23.60;62.20;;;;;;4103415;28;20065;-43
2023/02/20 03:19:25;;;;;;;15.15;4.30;;;23.60;62.20;;;;;;4103393;28;20447;-42
2023/02/20 03:21:49;;;;;;;4.50;3.70;;;23.60;62.20;;;;;;4100306;28;20495;-46
2023/02/20 03:24:13;;;;;;;;;;;23.60;62.30;;;;;;4105023;28;20124;-47
2023/02/20 03:26:37;;;;;;;4.43;3.45;;;23.60;62.30;;;;;;4101383;28;20403;-44
2023/02/20 03:29:16;;;;;;;3.95;3.40;;;23.50;62.30;;;;;;4103539;28;20081;-43
2023/02/20 03:45:30;;;;;;;3.90;3.25;;;23.50;62.40;;;;;;4097631;28;19962;-40
2023/02/20 03:47:57;;;;;;;3.72;2.90;;;23.40;62.30;;;;;;4098821;28;20049;-43
2023/02/20 03:50:20;;;;;;;3.60;3.13;;;23.50;62.30;;;;;;4100476;28;20042;-46
2023/02/20 03:52:42;;;;;;;3.60;2.83;;;23.50;62.30;;;;;;4101054;28;20069;-48
2023/02/20 03:55:08;;;;;;;4.38;3.50;;;23.50;62.20;;;;;;4104376;28;20078;-43
2023/02/20 03:57:38;;;;;;;4.15;2.97;;;23.40;62.20;;;;;;4101389;28;20051;-42
2023/02/20 04:00:09;;;;;;;4.47;2.85;;;23.40;62.30;;;;;;4102707;28;20204;-42
2023/02/20 04:02:37;;;;;;;7.18;3.50;;;23.40;62.40;;;;;;4101843;28;20589;-43
2023/02/20 04:05:06;;;;;;;5.47;3.00;;;23.40;62.60;;;;;;4103379;28;20124;-45
2023/02/20 04:07:36;;;;;;;4.10;2.90;;;23.40;62.90;;;;;;4097998;28;20128;-43
2023/02/20 04:10:03;;;;;;;3.33;2.80;;;23.40;62.80;;;;;;4099015;28;20070;-42
2023/02/20 04:12:30;;;;;;;3.83;2.80;;;23.40;62.70;;;;;;4100667;28;20038;-43
2023/02/20 04:14:55;;;;;;;4.28;2.90;;;23.40;62.40;;;;;;4100254;28;20576;-40
2023/02/20 04:17:23;;;;;;;3.30;2.63;;;23.40;62.40;;;;;;4098370;28;20062;-42
2023/02/20 04:19:46;;;;;;;7.70;2.38;;;23.40;62.40;;;;;;4097544;28;20034;-43
2023/02/20 04:22:14;;;;;;;3.35;2.50;;;23.40;62.50;;;;;;4100180;28;20062;-45
2023/02/20 04:24:49;;;;;;;4.45;2.70;;;23.50;62.60;;;;;;4098715;28;20563;-43
2023/02/20 04:27:13;;;;;;;3.22;2.65;;;23.50;62.60;;;;;;4099234;28;20642;-42
2023/02/20 04:29:35;;;;;;;3.45;2.47;;;23.50;62.30;;;;;;4099811;28;20058;-44
2023/02/20 04:31:58;;;;;;;3.42;2.40;;;23.50;62.50;;;;;;4085344;28;20053;-41
2023/02/20 04:34:21;;;;;;;3.10;2.60;;;23.50;62.60;;;;;;4097980;28;20086;-41
2023/02/20 04:36:43;;;;;;;3.67;2.78;;;23.50;62.50;;;;;;4100205;28;20097;-42
2023/02/20 04:39:05;;;;;;;3.28;2.38;;;23.50;62.20;;;;;;4099154;28;20532;-44
2023/02/20 04:41:28;;;;;;;4.28;2.47;;;23.50;62.30;;;;;;4100193;28;20836;-43
2023/02/20 04:44:30;;;;;;;3.70;2.70;;;23.50;62.20;;;;;;4096998;28;20536;-41
2023/02/20 04:46:32;;;;;;;4.07;3.10;;;23.50;61.90;;;;;;4099367;28;20054;-40
2023/02/20 04:48:55;;;;;;;4.25;2.47;;;23.60;62.00;;;;;;4096368;28;20135;-42
2023/02/20 04:51:17;;;;;;;3.53;2.40;;;23.60;62.10;;;;;;4083460;28;20540;-42
2023/02/20 04:53:40;;;;;;;3.05;2.35;;;23.60;62.00;;;;;;4093286;28;20041;-44
2023/02/20 04:56:02;;;;;;;4.95;2.90;;;23.60;61.90;;;;;;4098951;28;20492;-46
2023/02/20 04:58:24;;;;;;;14.38;2.70;;;23.60;62.50;;;;;;4096247;28;20035;-42
2023/02/20 05:00:47;;;;;;;4.07;2.50;;;23.70;61.90;;;;;;4099930;28;20046;-43
2023/02/20 05:03:09;;;;;;;2.88;2.20;;;23.70;61.80;;;;;;4096002;28;20126;-40
2023/02/20 05:05:32;;;;;;;2.88;2.03;;;23.80;61.80;;;;;;4096413;28;20479;-41
2023/02/20 05:08:00;;;;;;;4.75;2.53;;;23.80;61.70;;;;;;4082674;28;20943;-46
2023/02/20 05:10:24;;;;;;;3.40;1.98;;;23.80;61.80;;;;;;4094489;28;20456;-40
2023/02/20 05:12:46;;;;;;;2.72;2.03;;;23.80;61.50;;;;;;4081981;28;20043;-42
2023/02/20 05:15:09;;;;;;;3.10;2.10;;;23.80;61.30;;;;;;4098407;28;20077;-44
2023/02/20 05:17:32;;;;;;;2.78;1.67;;;23.90;61.10;;;;;;4097441;28;20047;-38
2023/02/20 05:19:54;;;;;;;2.22;1.70;;;23.90;61.00;;;;;;4098535;28;20884;-41
2023/02/20 05:22:20;;;;;;;2.00;1.70;;;24.00;60.90;;;;;;4098570;28;20136;-40
2023/02/20 05:24:46;;;;;;;2.58;1.77;;;24.00;60.70;;;;;;4098573;28;20748;-41
2023/02/20 05:27:09;;;;;;;2.70;1.50;;;24.00;60.40;;;;;;4092190;28;20061;-43
2023/02/20 05:29:31;;;;;;;3.85;2.10;;;24.00;60.50;;;;;;4097010;28;20449;-45
2023/02/20 05:31:54;;;;;;;1.90;1.60;;;24.00;60.50;;;;;;4100255;28;20533;-43
2023/02/20 05:34:16;;;;;;;2.83;1.85;;;24.10;60.30;;;;;;4102734;28;20524;-42
2023/02/20 05:36:39;;;;;;;1.95;1.60;;;24.10;60.40;;;;;;4095026;28;20053;-41
2023/02/20 05:39:01;;;;;;;1.85;1.60;;;24.10;60.20;;;;;;4098920;28;20437;-43
2023/02/20 05:41:24;;;;;;;2.60;1.85;;;24.10;60.20;;;;;;4105428;28;20114;-40
2023/02/20 05:43:47;;;;;;;10.52;2.25;;;24.10;60.10;;;;;;4102579;28;20034;-44
2023/02/20 05:46:09;;;;;;;9.50;2.58;;;24.20;60.20;;;;;;4096701;28;20568;-44
2023/02/20 05:48:32;;;;;;;3.47;1.55;;;24.20;60.00;;;;;;4091689;28;20106;-41
2023/02/20 05:50:54;;;;;;;2.25;1.60;;;24.20;59.80;;;;;;4095947;28;20038;-41
2023/02/20 05:53:17;;;;;;;3.15;1.70;;;24.20;59.50;;;;;;4100655;28;20070;-42
2023/02/20 05:55:39;;;;;;;1.80;1.30;;;24.20;59.30;;;;;;4089142;28;20067;-42
2023/02/20 05:58:01;;;;;;;1.70;1.33;;;24.30;59.60;;;;;;4103121;28;20054;-42
2023/02/20 06:00:24;;;;;;;3.03;1.63;;;24.30;59.50;;;;;;4099608;28;20058;-39
2023/02/20 06:02:47;;;;;;;1.98;1.60;;;24.30;59.30;;;;;;4107404;28;20567;-43
2023/02/20 06:05:09;;;;;;;1.98;1.50;;;24.20;59.10;;;;;;4105485;28;20066;-42
2023/02/20 06:07:32;;;;;;;2.05;1.65;;;24.20;59.20;;;;;;4105168;28;20054;-45
2023/02/20 06:09:54;;;;;;;1.95;1.35;;;24.20;59.20;;;;;;4106633;28;20042;-41
2023/02/20 06:12:17;;;;;;;2.67;1.60;;;24.20;59.10;;;;;;4107280;28;20057;-41
2023/02/20 06:14:39;;;;;;;2.22;1.77;;;24.20;59.20;;;;;;4103817;28;20176;-46
2023/02/20 06:17:02;;;;;;;2.78;1.50;;;24.20;59.10;;;;;;4105845;28;20038;-39
2023/02/20 06:19:25;;;;;;;2.60;1.70;;;24.20;58.90;;;;;;4107390;28;20046;-42
2023/02/20 06:21:49;;;;;;;3.30;1.35;;;24.20;58.80;;;;;;4107226;28;20038;-41
2023/02/20 06:24:11;;;;;;;3.25;1.55;;;24.20;58.70;;;;;;4104477;28;20416;-42
2023/02/20 06:26:40;;;;;;;1.90;1.27;;;24.20;58.60;;;;;;4099048;28;20050;-46
2023/02/20 06:29:03;;;;;;;1.92;1.30;;;24.30;58.40;;;;;;4105785;28;20047;-45
2023/02/20 06:31:27;;;;;;;3.13;1.45;;;24.30;58.20;;;;;;4100081;28;20573;-39
2023/02/20 06:33:49;;;;;;;;;;;24.30;58.50;;;;;;4092717;28;20532;-46
2023/02/20 06:36:22;;;;;;;2.40;1.13;;;24.30;58.30;;;;;;4103985;28;19997;-38
2023/02/20 06:38:45;;;;;;;2.87;1.30;;;24.30;58.20;;;;;;4105459;28;20038;-40
2023/02/20 06:41:07;;;;;;;2.17;1.23;;;24.30;58.00;;;;;;4102916;28;20047;-42
2023/02/20 06:43:30;;;;;;;2.90;1.52;;;24.30;58.00;;;;;;4106220;28;20196;-47
2023/02/20 06:45:52;;;;;;;4.13;1.75;;;24.30;58.10;;;;;;4105588;28;20289;-41
2023/02/20 06:48:16;;;;;;;3.33;1.88;;;24.30;58.10;;;;;;4105256;28;20038;-42
2023/02/20 06:50:38;;;;;;;3.10;2.10;;;24.30;58.10;;;;;;4104700;28;20038;-42
2023/02/20 06:53:00;;;;;;;3.33;2.00;;;24.30;58.20;;;;;;4104674;28;20524;-42
2023/02/20 06:55:23;;;;;;;3.55;1.88;;;24.30;58.50;;;;;;4106831;28;20046;-41
2023/02/20 06:57:45;;;;;;;3.75;1.60;;;24.30;58.70;;;;;;4105048;28;20035;-40
2023/02/20 07:00:08;;;;;;;2.70;1.48;;;24.20;58.70;;;;;;4102822;28;20051;-40
2023/02/20 07:02:31;;;;;;;2.60;1.40;;;24.20;58.70;;;;;;4102664;28;20038;-42
2023/02/20 07:04:53;;;;;;;3.25;1.50;;;24.20;58.70;;;;;;4098235;28;20054;-45
2023/02/20 07:07:16;;;;;;;3.28;1.17;;;24.20;58.50;;;;;;4104087;28;20144;-41
2023/02/20 07:09:38;;;;;;;2.22;1.27;;;24.20;58.50;;;;;;4100609;28;20440;-40
2023/02/20 07:12:00;;;;;;;2.55;1.33;;;24.20;58.30;;;;;;4105063;28;20078;-44
2023/02/20 07:14:23;;;;;;;2.63;1.42;;;24.20;58.30;;;;;;4084589;28;20070;-45
2023/02/20 07:16:45;;;;;;;1.65;1.10;;;24.10;58.30;;;;;;4104648;28;20123;-42
2023/02/20 07:19:08;;;;;;;5.25;1.30;;;24.10;58.20;;;;;;4102286;28;20575;-43
2023/02/20 07:21:30;;;;;;;2.47;1.25;;;24.00;58.30;;;;;;4097549;28;20126;-39
2023/02/20 07:23:52;;;;;;;2.22;1.30;;;24.00;58.40;;;;;;4104076;28;20117;-41
2023/02/20 07:26:26;;;;;;;2.53;1.40;;;24.00;58.30;;;;;;4104048;28;20054;-41
2023/02/20 07:28:48;;;;;;;2.35;1.35;;;24.00;58.20;;;;;;4102880;28;20400;-42
2023/02/20 07:31:11;;;;;;;2.95;1.50;;;24.00;58.00;;;;;;4106066;28;20370;-40
2023/02/20 07:33:33;;;;;;;2.25;1.17;;;24.00;58.30;;;;;;4105405;28;20066;-42
2023/02/20 07:35:56;;;;;;;2.20;1.15;;;23.90;58.20;;;;;;4106579;28;20053;-40
2023/02/20 07:38:18;;;;;;;2.42;0.93;;;23.90;58.20;;;;;;4098135;28;20121;-42
2023/02/20 07:40:41;;;;;;;2.67;1.15;;;23.80;58.40;;;;;;4088499;28;20440;-41
2023/02/20 07:43:03;;;;;;;2.75;1.20;;;23.80;58.60;;;;;;4088879;28;20036;-42
2023/02/20 07:45:25;;;;;;;4.03;1.15;;;23.80;58.70;;;;;;4101696;28;20451;-40
2023/02/20 07:47:48;;;;;;;2.85;0.98;;;23.80;58.70;;;;;;4100294;28;20047;-40
2023/02/20 07:50:26;;;;;;;2.80;1.30;;;23.70;58.60;;;;;;4102015;28;20035;-43
2023/02/20 07:52:48;;;;;;;2.33;1.00;;;23.70;58.70;;;;;;4100538;28;20046;-42
2023/02/20 07:55:15;;;;;;;2.20;1.13;;;23.60;58.60;;;;;;4094037;28;20071;-44
2023/02/20 07:57:38;;;;;;;1.65;1.10;;;23.60;58.60;;;;;;4096319;28;20363;-42
2023/02/20 08:00:05;;;;;;;1.85;1.02;;;23.60;58.60;;;;;;4098632;28;20428;-44
2023/02/20 08:02:27;;;;;;;1.88;0.90;;;23.50;58.50;;;;;;4096074;28;20185;-51
2023/02/20 08:04:50;;;;;;;3.42;1.40;;;23.50;58.50;;;;;;4099294;28;20043;-43
2023/02/20 08:07:13;;;;;;;1.30;0.93;;;23.40;58.30;;;;;;4100006;28;20054;-42
2023/02/20 08:09:35;;;;;;;2.00;0.90;;;23.50;58.40;;;;;;4097186;28;20109;-46
2023/02/20 08:11:58;;;;;;;1.73;0.93;;;23.40;58.70;;;;;;4096166;28;20042;-44
2023/02/20 08:14:21;;;;;;;2.03;0.82;;;23.30;58.60;;;;;;4106039;28;20039;-43
2023/02/20 08:16:44;;;;;;;2.75;1.10;;;23.30;59.10;;;;;;4104248;28;20443;-43
2023/02/20 08:19:06;;;;;;;1.88;0.88;;;23.50;59.90;;;;;;4104008;28;20035;-42
2023/02/20 08:21:29;;;;;;;2.92;0.80;;;23.70;60.50;;;;;;4097616;28;20125;-46
2023/02/20 08:23:52;;;;;;;1.88;0.90;;;23.90;60.90;;;;;;4103127;28;20516;-41
2023/02/20 08:26:15;;;;;;;2.83;1.00;;;24.10;61.00;;;;;;4103803;28;20134;-41
2023/02/20 08:28:37;;;;;;;1.27;0.80;;;24.20;61.50;;;;;;4101146;28;20451;-43
2023/02/20 08:31:00;;;;;;;1.90;0.82;;;24.40;61.90;;;;;;4103260;28;20109;-43
2023/02/20 08:33:23;;;;;;;3.88;1.23;;;24.60;61.70;;;;;;4103112;28;20094;-42
2023/02/20 08:35:47;;;;;;;3.63;0.98;;;24.80;62.20;;;;;;4083204;28;20122;-47
2023/02/20 08:38:28;;;;;;;3.53;1.25;;;24.90;62.60;;;;;;4099558;28;20031;-50
2023/02/20 08:40:50;;;;;;;1.95;0.80;;;25.10;62.50;;;;;;4098406;28;20547;-47
2023/02/20 08:43:13;;;;;;;2.70;1.08;;;25.30;62.50;;;;;;4094672;28;20483;-52
2023/02/20 08:45:36;;;;;;;1.90;0.85;;;25.40;62.30;;;;;;4097827;28;20059;-50
2023/02/20 08:48:00;;;;;;;1.73;1.00;;;25.50;62.20;;;;;;4098171;28;20039;-45
2023/02/20 08:50:23;;;;;;;2.47;0.88;;;25.60;62.30;;;;;;4097072;28;20126;-45
2023/02/20 08:52:47;;;;;;;3.45;1.63;;;25.70;62.10;;;;;;4095587;28;20060;-42
2023/02/20 08:55:10;;;;;;;4.15;1.48;;;25.80;63.60;;;;;;4095558;28;20057;-42
2023/02/20 08:57:32;;;;;;;7.13;1.33;;;25.90;64.50;;;;;;4093434;28;20117;-42
2023/02/20 08:59:55;;;;;;;4.50;1.50;;;26.10;65.00;;;;;;4091951;28;20121;-41
2023/02/20 09:02:23;;;;;;;4.82;1.63;;;26.10;65.00;;;;;;4097018;28;20035;-41
2023/02/20 09:04:46;;;;;;;7.43;1.90;;;26.30;65.50;;;;;;4104003;28;20112;-45
2023/02/20 09:07:08;;;;;;;6.43;1.73;;;26.30;65.30;;;;;;4098778;28;20051;-42
2023/02/20 09:09:31;;;;;;;4.28;1.70;;;26.40;65.60;;;;;;4099323;28;21096;-39
2023/02/20 09:11:54;;;;;;;5.03;1.70;;;26.50;65.60;;;;;;4095143;28;20509;-50
2023/02/20 09:14:16;;;;;;;6.75;1.52;;;26.60;65.60;;;;;;4093213;28;20031;-42
2023/02/20 09:16:41;;;;;;;8.18;2.20;;;26.70;65.40;;;;;;4098450;28;20026;-42
2023/02/20 09:19:03;;;;;;;4.90;2.00;;;26.80;65.20;;;;;;4092014;28;20047;-43
2023/02/20 09:21:28;;;;;;;4.22;1.70;;;26.90;65.10;;;;;;4102276;28;20293;-45
2023/02/20 09:23:50;;;;;;;7.35;2.05;;;26.90;65.20;;;;;;4107044;28;20053;-51
2023/02/20 09:26:13;;;;;;;6.28;2.30;;;26.90;65.70;;;;;;4107400;28;20145;-46
2023/02/20 09:28:36;;;;;;;8.25;2.40;;;26.80;65.70;;;;;;4099342;28;20067;-41
2023/02/20 09:30:59;;;;;;;7.25;1.70;;;26.80;65.90;;;;;;4099426;28;20042;-47
2023/02/20 09:33:22;;;;;;;7.50;1.85;;;26.90;66.00;;;;;;4096983;28;20041;-48
2023/02/20 09:35:48;;;;;;;7.65;2.00;;;27.00;65.90;;;;;;4101059;28;20047;-42
2023/02/20 09:38:10;;;;;;;5.50;1.77;;;27.00;65.90;;;;;;4101293;28;20039;-44
2023/02/20 09:40:33;;;;;;;5.90;2.20;;;27.10;65.70;;;;;;4090456;28;20451;-46
2023/02/20 09:42:58;;;;;;;10.17;2.30;;;27.10;65.70;;;;;;4103823;28;20046;-41
2023/02/20 09:45:28;;;;;;;7.28;2.08;;;27.20;65.80;;;;;;4096541;28;20289;-43
2023/02/20 09:47:59;;;;;;;5.80;1.88;;;27.20;65.80;;;;;;4100068;28;20584;-43
2023/02/20 09:50:40;;;;;;;4.70;1.60;;;27.30;66.00;;;;;;4096456;28;20137;-41
2023/02/20 09:53:27;;;;;;;5.13;2.13;;;27.30;66.00;;;;;;4101154;28;20161;-41
2023/02/20 09:55:51;;;;;;;5.07;2.08;;;27.30;66.00;;;;;;4100759;28;20057;-42
2023/02/20 09:58:43;;;;;;;5.90;1.80;;;27.40;66.00;;;;;;4096521;28;20038;-45
2023/02/20 10:01:07;;;;;;;6.93;1.95;;;27.40;65.90;;;;;;4099615;28;20042;-42
2023/02/20 10:03:56;;;;;;;9.55;2.17;;;27.50;65.80;;;;;;4100916;28;20571;-43
2023/02/20 10:06:20;;;;;;;7.25;2.20;;;27.50;66.00;;;;;;4101634;28;20047;-45
2023/02/20 10:08:44;;;;;;;6.00;1.73;;;27.50;66.00;;;;;;4098265;28;20043;-41
2023/02/20 10:11:10;;;;;;;7.78;1.95;;;27.50;65.90;;;;;;4096284;28;20035;-41
2023/02/20 10:13:55;;;;;;;6.68;2.30;;;27.60;65.90;;;;;;4103921;28;20053;-42
2023/02/20 10:16:49;;;;;;;10.43;2.38;;;27.60;66.00;;;;;;4104405;28;20113;-41
2023/02/20 10:19:41;;;;;;;8.90;2.15;;;27.60;66.10;;;;;;4104036;28;20046;-42
2023/02/20 10:22:48;;;;;;;6.65;2.17;;;27.70;66.10;;;;;;4101011;28;20693;-42
2023/02/20 10:25:21;;;;;;;5.78;2.00;;;27.70;65.90;;;;;;4092738;28;20138;-39
2023/02/20 10:27:58;;;;;;;5.68;1.90;;;27.70;65.80;;;;;;4103303;28;20046;-42
2023/02/20 10:30:34;;;;;;;4.53;1.88;;;27.70;65.80;;;;;;4102903;28;20522;-39
2023/02/20 10:33:08;;;;;;;6.75;1.85;;;27.70;65.80;;;;;;4103355;28;20054;-39
2023/02/20 10:35:40;;;;;;;8.60;2.05;;;27.60;65.90;;;;;;4106452;28;20050;-39
2023/02/20 10:38:07;;;;;;;7.65;2.55;;;27.70;66.00;;;;;;4106504;28;20050;-44
2023/02/20 10:41:02;;;;;;;5.13;2.35;;;27.60;66.00;;;;;;4106007;28;20410;-44
2023/02/20 10:43:42;;;;;;;;;;;27.70;66.00;;;;;;4101191;28;20386;-47
2023/02/20 11:25:26;;;;;;;6.38;1.80;;;27.80;66.50;;;;;;4093744;28;20137;-45
2023/02/20 11:27:53;;;;;;;8.05;2.20;;;27.80;66.50;;;;;;4092407;28;20375;-41
2023/02/20 11:30:35;;;;;;;6.57;1.77;;;27.80;66.40;;;;;;4100387;28;20034;-41
2023/02/20 11:33:05;;;;;;;5.80;1.83;;;27.80;66.70;;;;;;4099447;28;20150;-47
2023/02/20 11:35:32;;;;;;;5.15;1.88;;;27.80;66.80;;;;;;4101756;28;20133;-40
2023/02/20 11:38:19;;;;;;;6.18;2.28;;;27.80;66.70;;;;;;4101235;28;20051;-38
2023/02/20 11:40:44;;;;;;;8.10;2.13;;;27.80;66.90;;;;;;4101021;28;20439;-40
2023/02/20 11:43:25;;;;;;;7.68;2.45;;;27.90;67.00;;;;;;4100131;28;20106;-40
2023/02/20 11:45:47;;;;;;;11.60;2.88;;;27.90;67.00;;;;;;4100359;28;20105;-41
2023/02/20 11:48:12;;;;;;;7.30;2.33;;;27.90;66.90;;;;;;4102632;28;20730;-41
2023/02/20 11:50:44;;;;;;;8.93;1.95;;;27.90;67.00;;;;;;4098134;28;20125;-42
2023/02/20 11:53:17;;;;;;;6.45;2.03;;;28.00;66.80;;;;;;4102208;28;20070;-41
2023/02/20 11:55:39;;;;;;;6.05;1.80;;;28.00;66.60;;;;;;4101743;28;20034;-41
2023/02/20 11:58:03;;;;;;;6.30;2.10;;;28.00;66.50;;;;;;4098213;28;20035;-41
2023/02/20 12:00:43;;;;;;;;;;;28.00;66.50;;;;;;4099859;28;20503;-41
2023/02/20 12:03:09;;;;;;;4.68;1.45;;;28.10;66.60;;;;;;4098092;28;19930;-43
2023/02/20 12:05:41;;;;;;;7.22;1.85;;;28.10;66.50;;;;;;4098057;28;20054;-41
2023/02/20 12:08:22;;;;;;;5.45;1.70;;;28.10;66.60;;;;;;4098232;28;20069;-39
2023/02/20 12:10:48;;;;;;;4.85;1.65;;;28.20;66.50;;;;;;4099887;28;20289;-42
2023/02/20 12:13:15;;;;;;;4.10;1.65;;;28.20;66.40;;;;;;4083006;28;20039;-41
2023/02/20 12:15:37;;;;;;;3.75;1.52;;;28.20;66.30;;;;;;4102667;28;20069;-41
2023/02/20 12:18:18;;;;;;;8.67;1.60;;;28.20;66.30;;;;;;4095274;28;20381;-44
2023/02/20 12:21:30;;;;;;;6.40;2.20;;;28.10;66.10;;;;;;4098952;28;20320;-43
2023/02/20 12:24:20;;;;;;;5.47;1.50;;;28.20;66.10;;;;;;4090726;28;20054;-43
2023/02/20 12:26:50;;;;;;;5.35;1.42;;;28.20;66.00;;;;;;4099413;28;20053;-44
2023/02/20 12:29:32;;;;;;;5.95;1.33;;;28.20;65.90;;;;;;4096868;28;20098;-40
2023/02/20 12:32:13;;;;;;;6.18;2.08;;;28.30;66.00;;;;;;4096717;28;20039;-43
2023/02/20 12:34:54;;;;;;;4.07;1.63;;;28.20;65.80;;;;;;4083639;28;20054;-43
2023/02/20 12:37:53;;;;;;;6.25;1.50;;;28.30;65.90;;;;;;4101286;28;20627;-43
2023/02/20 12:40:45;;;;;;;4.35;1.30;;;28.30;65.80;;;;;;4098577;28;20074;-41
2023/02/20 12:43:35;;;;;;;4.47;1.30;;;28.30;65.70;;;;;;4096530;28;20035;-49
2023/02/20 12:46:20;;;;;;;3.13;1.10;;;28.30;65.70;;;;;;4097984;28;20053;-42
2023/02/20 12:49:28;;;;;;;3.47;1.30;;;28.30;65.60;;;;;;4095611;28;20047;-42
2023/02/20 12:52:19;;;;;;;8.55;1.60;;;28.30;65.60;;;;;;4099658;28;20136;-42
2023/02/20 12:54:58;;;;;;;2.67;1.25;;;28.30;65.50;;;;;;4098267;28;20069;-43
2023/02/20 12:57:41;;;;;;;4.25;1.30;;;28.30;65.60;;;;;;4098461;28;20043;-40
2023/02/20 13:00:14;;;;;;;7.75;1.58;;;28.30;65.60;;;;;;4098127;28;20125;-42
2023/02/20 13:02:44;;;;;;;6.30;1.60;;;28.40;65.70;;;;;;4097895;28;20041;-45
2023/02/20 13:05:11;;;;;;;4.70;1.42;;;28.30;65.70;;;;;;4095575;28;20050;-41
2023/02/20 13:07:57;;;;;;;3.58;1.33;;;28.40;65.70;;;;;;4098043;28;20081;-42
2023/02/20 13:10:24;;;;;;;3.75;1.13;;;28.40;65.70;;;;;;4097749;28;21233;-49
2023/02/20 13:12:49;;;;;;;4.15;1.25;;;28.40;65.70;;;;;;4098829;28;20059;-45
2023/02/20 13:15:45;;;;;;;3.72;1.15;;;28.40;65.70;;;;;;4095114;28;20054;-41
2023/02/20 13:18:20;;;;;;;3.25;1.15;;;28.40;65.60;;;;;;4083957;28;20051;-42
2023/02/20 13:20:49;;;;;;;3.15;1.17;;;28.50;65.80;;;;;;4097109;28;20626;-43
2023/02/20 13:23:18;;;;;;;3.92;1.10;;;28.50;65.90;;;;;;4098628;28;20326;-44
2023/02/20 13:25:46;;;;;;;3.58;1.20;;;28.40;65.90;;;;;;4101393;28;20098;-46
2023/02/20 13:28:12;;;;;;;3.47;1.25;;;28.50;66.20;;;;;;4094549;28;20442;-43
2023/02/20 13:30:34;;;;;;;3.80;1.40;;;28.50;66.40;;;;;;4096839;28;20117;-40
2023/02/20 13:33:21;;;;;;;3.17;1.23;;;28.50;66.40;;;;;;4098579;28;20038;-40
2023/02/20 13:35:49;;;;;;;4.90;1.30;;;28.50;66.40;;;;;;4099555;28;20039;-47
2023/02/20 13:38:15;;;;;;;3.13;1.10;;;28.50;67.10;;;;;;4094980;28;20401;-45
2023/02/20 13:41:06;;;;;;;3.38;0.93;;;28.60;66.60;;;;;;4102976;28;20099;-44
2023/02/20 13:43:36;;;;;;;4.18;1.55;;;28.60;66.90;;;;;;4100453;28;20040;-43
2023/02/20 13:46:13;;;;;;;3.50;1.23;;;28.50;66.80;;;;;;4098908;28;20043;-46
2023/02/20 13:48:36;;;;;;;2.85;1.10;;;28.60;66.60;;;;;;4095725;28;20078;-45